Houston, Texas
Traffic Map
Current Weather Conditions
Houston, Texas
Broken Clouds
Broken Clouds
86°
Feels Like: 96°
Wind Chill: 86° Ceiling: 25000
Heat Index: 96° Visibility: 10mi
Dew Point: 76° Wind: 13mph
Humidity: 72% Direction: 170° (S)
Pressure: 30.07in Gusts: 0mph
Raw Report DataKIAH 260153Z 17011KT 10SM FEW030 SCT045 SCT230 BKN250 30/24 A3007 RMK AO2 SLP182 T03000244
Traffic Incident Summary
Active as of:
Severity:
Category:
InformationThere was an issue retrieving the traffic information for this location. Please try a different location or try again shortly.
Advertisements
Track Severe Weather on mobile